CheckWX is a tool to help pilots better visualize weather data.  It is not intended as a substitute for an official pre-flight weather briefing.

12:28:16 UTC

KDUB METAR
Dubois Municipal Airport
Dubois, Wyoming, USA
Current

33 mins ago

KDUB 221155Z AUTO 29006KT 10SM SCT120 M18/M21 A2972 RMK AO2
Observed
Feb-22 @ 11:55 UTC
Wind
  • 290° at 6 KTS
Visibility
10 SM
Flight Rules
VFR
Cloud Levels
  • Scattered at 12,000' AGL
Temperature
-18°C / -0°F
Dewpoint
-21°C / -6°F
Humidity
78%
Altimeter
29.72" Hg
Pressure
1006.42 hPa
Previous

53 mins ago

KDUB 221135Z AUTO 29008KT 10SM SCT120 M18/M21 A2972 RMK AO2
Observed
Feb-22 @ 11:35 UTC
Wind
  • 290° at 8 KTS
Visibility
10 SM
Flight Rules
VFR
Cloud Levels
  • Scattered at 12,000' AGL
Temperature
-18°C / -0°F
Dewpoint
-21°C / -6°F
Humidity
78%
Altimeter
29.72" Hg
Pressure
1006.42 hPa
Previous

1 hour ago

KDUB 221115Z AUTO 30011KT 10SM CLR M18/M21 A2972 RMK AO2
Observed
Feb-22 @ 11:15 UTC
Wind
  • 300° at 11 KTS
Visibility
10 SM
Flight Rules
VFR
Cloud Levels
  • Clear skies
Temperature
-18°C / -0°F
Dewpoint
-21°C / -6°F
Humidity
78%
Altimeter
29.72" Hg
Pressure
1006.42 hPa